Time,TemperatureF,DewpointF,PressureIn,WindDirection,WindDirectionDegrees,WindSpeedMPH,WindSpeedGustMPH,Humidity,HourlyPrecipIn,Conditions,Clouds,dailyrainin,SoftwareType,DateUTC
2013-05-18 05:57:00,29.2,28.5,30.33,SSE,167,0.0,6.0,97,0.00,,,0.00,Wunderground v.1.13,2013-05-18 09:57:00,
2013-05-18 06:30:00,30.8,30.3,30.34,SSE,167,0.0,0.0,98,0.00,,,0.00,Wunderground v.1.13,2013-05-18 10:30:00,
2013-05-18 07:00:00,34.1,33.1,30.35,SSE,159,2.0,2.0,96,0.00,,,0.00,Wunderground v.1.13,2013-05-18 11:00:00,
2013-05-18 07:30:00,35.9,33.0,30.35,South,180,1.0,3.0,89,0.00,,,0.00,Wunderground v.1.13,2013-05-18 11:30:00,
2013-05-18 08:00:00,38.2,34.1,30.35,SSW,206,1.0,1.0,85,0.00,,,0.00,Wunderground v.1.13,2013-05-18 12:00:00,
2013-05-18 08:30:00,41.8,35.1,30.36,SSE,159,1.0,1.0,77,0.00,,,0.00,Wunderground v.1.13,2013-05-18 12:30:00,
2013-05-18 09:00:00,43.8,34.6,30.36,SSE,162,2.0,5.0,70,0.00,,,0.00,Wunderground v.1.13,2013-05-18 13:00:00,
2013-05-18 09:30:00,45.8,35.1,30.35,SW,223,1.0,1.0,66,0.00,,,0.00,Wunderground v.1.13,2013-05-18 13:30:00,
2013-05-18 10:00:00,48.5,34.8,30.35,SW,232,1.0,3.0,59,0.00,,,0.00,Wunderground v.1.13,2013-05-18 14:00:00,
2013-05-18 10:30:00,49.1,33.2,30.35,SSW,213,2.0,2.0,54,0.00,,,0.00,Wunderground v.1.13,2013-05-18 14:30:00,
2013-05-18 11:00:00,50.2,33.7,30.35,SSE,157,2.0,5.0,53,0.00,,,0.00,Wunderground v.1.13,2013-05-18 15:00:00,
2013-05-18 11:30:00,49.4,32.0,30.35,North,10,1.0,1.0,51,0.00,,,0.00,Wunderground v.1.13,2013-05-18 15:30:00,
2013-05-18 12:00:00,49.9,31.5,30.34,South,173,2.0,2.0,49,0.00,,,0.00,Wunderground v.1.13,2013-05-18 16:00:00,
2013-05-18 12:30:00,50.8,31.3,30.33,SE,128,3.0,3.0,47,0.00,,,0.00,Wunderground v.1.13,2013-05-18 16:30:00,
2013-05-18 13:00:00,51.2,32.2,30.33,SSE,158,3.0,3.0,48,0.00,,,0.00,Wunderground v.1.13,2013-05-18 17:00:00,
2013-05-18 13:30:00,52.2,32.0,30.32,ESE,103,1.0,3.0,46,0.00,,,0.00,Wunderground v.1.13,2013-05-18 17:30:00,
2013-05-18 14:00:00,53.2,31.8,30.32,South,169,2.0,2.0,44,0.00,,,0.00,Wunderground v.1.13,2013-05-18 18:00:00,
2013-05-18 14:30:00,54.9,34.5,30.31,SSW,199,3.0,3.0,46,0.00,,,0.00,Wunderground v.1.13,2013-05-18 18:30:00,
2013-05-18 15:00:00,55.2,33.6,30.31,SW,232,1.0,1.0,44,0.00,,,0.00,Wunderground v.1.13,2013-05-18 19:00:00,
2013-05-18 15:30:00,55.6,34.0,30.30,South,181,2.0,2.0,44,0.00,,,0.00,Wunderground v.1.13,2013-05-18 19:30:00,
2013-05-18 16:00:00,54.6,31.9,30.30,SE,135,1.0,1.0,42,0.00,,,0.00,Wunderground v.1.13,2013-05-18 20:00:00,
2013-05-18 16:30:00,55.5,33.3,30.29,NW,317,2.0,2.0,43,0.00,,,0.00,Wunderground v.1.13,2013-05-18 20:30:00,
2013-05-18 17:00:00,54.7,34.8,30.30,WSW,239,0.0,0.0,47,0.00,,,0.00,Wunderground v.1.13,2013-05-18 21:00:00,
2013-05-18 17:30:00,56.2,35.1,30.29,NW,305,1.0,1.0,45,0.00,,,0.00,Wunderground v.1.13,2013-05-18 21:30:00,
2013-05-18 18:00:00,56.0,34.4,30.30,West,264,0.0,1.0,44,0.00,,,0.00,Wunderground v.1.13,2013-05-18 22:00:00,
2013-05-18 18:30:00,54.6,33.7,30.30,NNE,24,1.0,2.0,45,0.00,,,0.00,Wunderground v.1.13,2013-05-18 22:30:00,
2013-05-18 19:00:00,53.1,33.9,30.31,SSW,198,1.0,1.0,48,0.00,,,0.00,Wunderground v.1.13,2013-05-18 23:00:00,
2013-05-18 19:30:00,51.4,34.8,30.32,West,273,0.0,0.0,53,0.00,,,0.00,Wunderground v.1.13,2013-05-18 23:30:00,
2013-05-18 20:00:00,47.3,34.9,30.33,SW,234,0.0,0.0,62,0.00,,,0.00,Wunderground v.1.13,2013-05-19 00:00:00,
2013-05-18 20:30:00,42.7,34.6,30.34,SW,234,0.0,0.0,73,0.00,,,0.00,Wunderground v.1.13,2013-05-19 00:30:00,
2013-05-18 21:00:00,40.0,34.0,30.35,SW,234,0.0,0.0,79,0.00,,,0.00,Wunderground v.1.13,2013-05-19 01:00:00,
2013-05-18 21:30:00,37.7,33.3,30.36,SW,234,0.0,0.0,84,0.00,,,0.00,Wunderground v.1.13,2013-05-19 01:30:00,
2013-05-18 22:00:00,35.9,32.4,30.36,SW,234,0.0,0.0,87,0.00,,,0.00,Wunderground v.1.13,2013-05-19 02:00:00,
2013-05-18 22:30:00,34.3,31.4,30.36,SW,234,0.0,0.0,89,0.00,,,0.00,Wunderground v.1.13,2013-05-19 02:30:00,
2013-05-18 23:00:00,33.1,30.8,30.36,SW,234,0.0,0.0,91,0.00,,,0.00,Wunderground v.1.13,2013-05-19 03:00:00,
2013-05-18 23:30:00,32.1,30.0,30.37,SW,234,0.0,0.0,92,0.00,,,0.00,Wunderground v.1.13,2013-05-19 03:30:00,